sensor_id;sensor_type;location;lat;lon;timestamp;P1;durP1;ratioP1;P2;durP2;ratioP2
30505;SDS011;17292;51.600;4.994;2022-11-15T00:01:59;6.95;;;3.00;;
30505;SDS011;17292;51.600;4.994;2022-11-15T00:04:25;7.78;;;3.13;;
30505;SDS011;17292;51.600;4.994;2022-11-15T00:06:51;10.50;;;3.78;;
30505;SDS011;17292;51.600;4.994;2022-11-15T00:09:17;7.45;;;3.30;;
30505;SDS011;17292;51.600;4.994;2022-11-15T00:11:43;5.15;;;2.78;;
30505;SDS011;17292;51.600;4.994;2022-11-15T00:14:10;6.82;;;3.10;;
30505;SDS011;17292;51.600;4.994;2022-11-15T00:16:36;7.97;;;2.65;;
30505;SDS011;17292;51.600;4.994;2022-11-15T00:19:02;7.10;;;3.08;;
30505;SDS011;17292;51.600;4.994;2022-11-15T00:21:28;8.57;;;3.03;;
30505;SDS011;17292;51.600;4.994;2022-11-15T00:23:54;6.65;;;3.08;;
30505;SDS011;17292;51.600;4.994;2022-11-15T00:26:21;7.97;;;2.70;;
30505;SDS011;17292;51.600;4.994;2022-11-15T00:28:47;5.43;;;2.90;;
30505;SDS011;17292;51.600;4.994;2022-11-15T00:31:14;8.38;;;3.28;;
30505;SDS011;17292;51.600;4.994;2022-11-15T00:33:42;6.00;;;2.75;;
30505;SDS011;17292;51.600;4.994;2022-11-15T00:36:09;7.45;;;2.83;;
30505;SDS011;17292;51.600;4.994;2022-11-15T00:38:37;10.20;;;3.47;;
30505;SDS011;17292;51.600;4.994;2022-11-15T00:41:04;9.25;;;3.55;;
30505;SDS011;17292;51.600;4.994;2022-11-15T00:43:30;6.05;;;3.15;;
30505;SDS011;17292;51.600;4.994;2022-11-15T00:45:57;8.52;;;3.22;;
30505;SDS011;17292;51.600;4.994;2022-11-15T00:48:23;6.78;;;2.58;;
30505;SDS011;17292;51.600;4.994;2022-11-15T00:50:49;9.27;;;3.00;;
30505;SDS011;17292;51.600;4.994;2022-11-15T00:53:16;6.60;;;2.90;;
30505;SDS011;17292;51.600;4.994;2022-11-15T00:55:42;10.60;;;2.80;;
30505;SDS011;17292;51.600;4.994;2022-11-15T00:58:09;6.20;;;2.47;;
30505;SDS011;17292;51.600;4.994;2022-11-15T01:00:35;9.00;;;3.22;;
30505;SDS011;17292;51.600;4.994;2022-11-15T01:03:01;4.63;;;2.70;;
30505;SDS011;17292;51.600;4.994;2022-11-15T01:05:28;8.60;;;3.05;;
30505;SDS011;17292;51.600;4.994;2022-11-15T01:07:54;6.88;;;2.90;;
30505;SDS011;17292;51.600;4.994;2022-11-15T01:10:21;12.68;;;3.10;;
30505;SDS011;17292;51.600;4.994;2022-11-15T01:12:48;5.75;;;2.60;;
30505;SDS011;17292;51.600;4.994;2022-11-15T01:15:14;10.80;;;3.20;;
30505;SDS011;17292;51.600;4.994;2022-11-15T01:17:40;5.68;;;2.78;;
30505;SDS011;17292;51.600;4.994;2022-11-15T01:20:07;6.25;;;2.70;;
30505;SDS011;17292;51.600;4.994;2022-11-15T01:22:33;8.57;;;2.95;;
30505;SDS011;17292;51.600;4.994;2022-11-15T01:24:59;5.60;;;2.60;;
30505;SDS011;17292;51.600;4.994;2022-11-15T01:27:25;5.43;;;2.60;;
30505;SDS011;17292;51.600;4.994;2022-11-15T01:29:52;7.00;;;2.45;;
30505;SDS011;17292;51.600;4.994;2022-11-15T01:32:18;4.78;;;2.28;;
30505;SDS011;17292;51.600;4.994;2022-11-15T01:34:44;5.55;;;2.55;;
30505;SDS011;17292;51.600;4.994;2022-11-15T01:37:10;5.60;;;2.70;;
30505;SDS011;17292;51.600;4.994;2022-11-15T01:39:36;8.55;;;3.15;;
30505;SDS011;17292;51.600;4.994;2022-11-15T01:42:03;3.35;;;2.40;;
30505;SDS011;17292;51.600;4.994;2022-11-15T01:44:43;4.80;;;2.38;;
30505;SDS011;17292;51.600;4.994;2022-11-15T01:50:06;6.15;;;2.72;;
30505;SDS011;17292;51.600;4.994;2022-11-15T01:52:34;5.80;;;2.28;;
30505;SDS011;17292;51.600;4.994;2022-11-15T01:57:29;5.25;;;2.60;;
30505;SDS011;17292;51.600;4.994;2022-11-15T01:59:56;3.83;;;2.60;;
30505;SDS011;17292;51.600;4.994;2022-11-15T02:02:23;6.07;;;2.65;;
30505;SDS011;17292;51.600;4.994;2022-11-15T02:04:49;6.03;;;2.67;;
30505;SDS011;17292;51.600;4.994;2022-11-15T02:07:16;6.10;;;2.38;;
30505;SDS011;17292;51.600;4.994;2022-11-15T02:09:43;4.72;;;2.85;;
30505;SDS011;17292;51.600;4.994;2022-11-15T02:12:10;4.88;;;2.20;;
30505;SDS011;17292;51.600;4.994;2022-11-15T02:14:38;9.25;;;2.85;;
30505;SDS011;17292;51.600;4.994;2022-11-15T02:20:02;7.38;;;2.75;;
30505;SDS011;17292;51.600;4.994;2022-11-15T02:22:37;6.88;;;2.45;;
30505;SDS011;17292;51.600;4.994;2022-11-15T02:25:08;6.43;;;2.25;;
30505;SDS011;17292;51.600;4.994;2022-11-15T02:30:21;7.43;;;2.70;;
30505;SDS011;17292;51.600;4.994;2022-11-15T02:32:52;6.25;;;2.70;;
30505;SDS011;17292;51.600;4.994;2022-11-15T02:35:44;5.50;;;2.70;;
30505;SDS011;17292;51.600;4.994;2022-11-15T02:38:15;6.68;;;2.28;;
30505;SDS011;17292;51.600;4.994;2022-11-15T02:40:53;5.53;;;2.60;;
30505;SDS011;17292;51.600;4.994;2022-11-15T02:44:03;4.72;;;2.83;;
30505;SDS011;17292;51.600;4.994;2022-11-15T02:46:26;6.20;;;2.85;;
30505;SDS011;17292;51.600;4.994;2022-11-15T02:49:12;5.70;;;2.30;;
30505;SDS011;17292;51.600;4.994;2022-11-15T02:51:39;4.32;;;2.22;;
30505;SDS011;17292;51.600;4.994;2022-11-15T02:54:06;6.38;;;2.65;;
30505;SDS011;17292;51.600;4.994;2022-11-15T02:56:32;5.55;;;2.60;;
30505;SDS011;17292;51.600;4.994;2022-11-15T02:59:36;8.48;;;2.80;;
30505;SDS011;17292;51.600;4.994;2022-11-15T03:04:23;3.50;;;2.38;;
30505;SDS011;17292;51.600;4.994;2022-11-15T03:06:58;6.50;;;2.97;;
30505;SDS011;17292;51.600;4.994;2022-11-15T03:12:04;6.95;;;2.70;;
30505;SDS011;17292;51.600;4.994;2022-11-15T03:14:37;8.35;;;2.50;;
30505;SDS011;17292;51.600;4.994;2022-11-15T03:20:08;3.45;;;2.30;;
30505;SDS011;17292;51.600;4.994;2022-11-15T03:22:38;7.20;;;2.70;;
30505;SDS011;17292;51.600;4.994;2022-11-15T03:25:07;3.97;;;2.40;;
30505;SDS011;17292;51.600;4.994;2022-11-15T03:27:36;4.75;;;2.80;;
30505;SDS011;17292;51.600;4.994;2022-11-15T03:30:05;4.70;;;2.10;;
30505;SDS011;17292;51.600;4.994;2022-11-15T03:32:34;3.75;;;2.00;;
30505;SDS011;17292;51.600;4.994;2022-11-15T03:35:02;5.72;;;2.55;;
30505;SDS011;17292;51.600;4.994;2022-11-15T03:40:00;5.45;;;2.75;;
30505;SDS011;17292;51.600;4.994;2022-11-15T03:45:08;5.00;;;2.47;;
30505;SDS011;17292;51.600;4.994;2022-11-15T03:47:39;5.50;;;2.50;;
30505;SDS011;17292;51.600;4.994;2022-11-15T03:50:08;5.07;;;2.13;;
30505;SDS011;17292;51.600;4.994;2022-11-15T03:52:36;5.60;;;2.72;;
30505;SDS011;17292;51.600;4.994;2022-11-15T03:55:03;6.15;;;2.50;;
30505;SDS011;17292;51.600;4.994;2022-11-15T03:57:30;5.85;;;2.50;;
30505;SDS011;17292;51.600;4.994;2022-11-15T03:59:56;3.30;;;2.38;;
30505;SDS011;17292;51.600;4.994;2022-11-15T04:02:22;2.92;;;2.25;;
30505;SDS011;17292;51.600;4.994;2022-11-15T04:04:48;7.15;;;2.47;;
30505;SDS011;17292;51.600;4.994;2022-11-15T04:07:15;7.00;;;2.50;;
30505;SDS011;17292;51.600;4.994;2022-11-15T04:09:41;5.88;;;2.55;;
30505;SDS011;17292;51.600;4.994;2022-11-15T04:12:26;3.67;;;2.50;;
30505;SDS011;17292;51.600;4.994;2022-11-15T04:14:59;5.30;;;2.28;;
30505;SDS011;17292;51.600;4.994;2022-11-15T04:20:02;6.47;;;2.78;;
30505;SDS011;17292;51.600;4.994;2022-11-15T04:22:47;6.20;;;2.35;;
30505;SDS011;17292;51.600;4.994;2022-11-15T04:25:32;5.55;;;2.42;;
30505;SDS011;17292;51.600;4.994;2022-11-15T04:27:58;3.20;;;2.30;;
30505;SDS011;17292;51.600;4.994;2022-11-15T04:30:24;3.58;;;2.00;;
30505;SDS011;17292;51.600;4.994;2022-11-15T04:32:51;4.03;;;2.38;;
30505;SDS011;17292;51.600;4.994;2022-11-15T04:35:17;4.53;;;2.45;;
30505;SDS011;17292;51.600;4.994;2022-11-15T04:37:43;6.78;;;2.25;;
30505;SDS011;17292;51.600;4.994;2022-11-15T04:40:09;4.03;;;2.53;;
30505;SDS011;17292;51.600;4.994;2022-11-15T04:42:36;3.42;;;2.17;;
30505;SDS011;17292;51.600;4.994;2022-11-15T04:45:02;5.65;;;2.28;;
30505;SDS011;17292;51.600;4.994;2022-11-15T04:47:28;7.25;;;2.40;;
30505;SDS011;17292;51.600;4.994;2022-11-15T04:49:55;3.83;;;2.40;;
30505;SDS011;17292;51.600;4.994;2022-11-15T04:52:21;4.25;;;2.17;;
30505;SDS011;17292;51.600;4.994;2022-11-15T04:54:47;4.03;;;2.55;;
30505;SDS011;17292;51.600;4.994;2022-11-15T04:57:13;3.80;;;2.80;;
30505;SDS011;17292;51.600;4.994;2022-11-15T04:59:40;4.18;;;2.13;;
30505;SDS011;17292;51.600;4.994;2022-11-15T05:02:06;4.70;;;2.42;;
30505;SDS011;17292;51.600;4.994;2022-11-15T05:04:32;4.68;;;2.85;;
30505;SDS011;17292;51.600;4.994;2022-11-15T05:06:58;3.35;;;2.00;;
30505;SDS011;17292;51.600;4.994;2022-11-15T05:09:24;5.68;;;2.40;;
30505;SDS011;17292;51.600;4.994;2022-11-15T05:11:51;4.63;;;2.50;;
30505;SDS011;17292;51.600;4.994;2022-11-15T05:14:17;7.20;;;2.80;;
30505;SDS011;17292;51.600;4.994;2022-11-15T05:16:43;4.15;;;2.60;;
30505;SDS011;17292;51.600;4.994;2022-11-15T05:19:09;2.85;;;2.20;;
30505;SDS011;17292;51.600;4.994;2022-11-15T05:21:36;5.95;;;2.85;;
30505;SDS011;17292;51.600;4.994;2022-11-15T05:24:02;4.75;;;2.42;;
30505;SDS011;17292;51.600;4.994;2022-11-15T05:26:29;4.25;;;2.65;;
30505;SDS011;17292;51.600;4.994;2022-11-15T05:28:56;4.82;;;2.22;;
30505;SDS011;17292;51.600;4.994;2022-11-15T05:31:22;4.68;;;2.20;;
30505;SDS011;17292;51.600;4.994;2022-11-15T05:33:49;5.18;;;2.78;;
30505;SDS011;17292;51.600;4.994;2022-11-15T05:36:27;3.78;;;2.60;;
30505;SDS011;17292;51.600;4.994;2022-11-15T05:38:53;5.38;;;2.40;;
30505;SDS011;17292;51.600;4.994;2022-11-15T05:41:20;3.90;;;2.22;;
30505;SDS011;17292;51.600;4.994;2022-11-15T05:43:48;4.50;;;2.35;;
30505;SDS011;17292;51.600;4.994;2022-11-15T05:46:14;7.35;;;2.60;;
30505;SDS011;17292;51.600;4.994;2022-11-15T05:48:41;5.05;;;2.25;;
30505;SDS011;17292;51.600;4.994;2022-11-15T05:51:09;5.57;;;2.47;;
30505;SDS011;17292;51.600;4.994;2022-11-15T05:53:35;2.60;;;2.38;;
30505;SDS011;17292;51.600;4.994;2022-11-15T05:56:02;6.32;;;2.60;;
30505;SDS011;17292;51.600;4.994;2022-11-15T05:58:30;4.93;;;2.40;;
30505;SDS011;17292;51.600;4.994;2022-11-15T06:00:57;6.68;;;2.47;;
30505;SDS011;17292;51.600;4.994;2022-11-15T06:03:23;6.15;;;2.45;;
30505;SDS011;17292;51.600;4.994;2022-11-15T06:05:49;6.43;;;2.80;;
30505;SDS011;17292;51.600;4.994;2022-11-15T06:08:16;7.60;;;2.40;;
30505;SDS011;17292;51.600;4.994;2022-11-15T06:10:42;6.10;;;2.35;;
30505;SDS011;17292;51.600;4.994;2022-11-15T06:13:08;7.45;;;2.35;;
30505;SDS011;17292;51.600;4.994;2022-11-15T06:15:34;7.18;;;2.58;;
30505;SDS011;17292;51.600;4.994;2022-11-15T06:18:01;5.78;;;2.72;;
30505;SDS011;17292;51.600;4.994;2022-11-15T06:20:28;8.15;;;2.75;;
30505;SDS011;17292;51.600;4.994;2022-11-15T06:23:01;6.25;;;2.35;;
30505;SDS011;17292;51.600;4.994;2022-11-15T06:25:28;7.40;;;2.53;;
30505;SDS011;17292;51.600;4.994;2022-11-15T06:27:54;7.10;;;2.30;;
30505;SDS011;17292;51.600;4.994;2022-11-15T06:30:21;6.43;;;2.50;;
30505;SDS011;17292;51.600;4.994;2022-11-15T06:32:47;8.20;;;2.58;;
30505;SDS011;17292;51.600;4.994;2022-11-15T06:35:14;15.43;;;2.60;;
30505;SDS011;17292;51.600;4.994;2022-11-15T06:37:40;4.30;;;2.22;;
30505;SDS011;17292;51.600;4.994;2022-11-15T06:40:07;8.02;;;2.42;;
30505;SDS011;17292;51.600;4.994;2022-11-15T06:42:34;6.07;;;2.63;;
30505;SDS011;17292;51.600;4.994;2022-11-15T06:45:00;3.70;;;2.28;;
30505;SDS011;17292;51.600;4.994;2022-11-15T06:47:27;6.75;;;2.50;;
30505;SDS011;17292;51.600;4.994;2022-11-15T06:49:53;8.05;;;2.72;;
30505;SDS011;17292;51.600;4.994;2022-11-15T06:52:19;5.70;;;2.40;;
30505;SDS011;17292;51.600;4.994;2022-11-15T06:54:46;7.45;;;2.40;;
30505;SDS011;17292;51.600;4.994;2022-11-15T06:57:13;8.95;;;2.75;;
30505;SDS011;17292;51.600;4.994;2022-11-15T06:59:39;5.82;;;2.63;;
30505;SDS011;17292;51.600;4.994;2022-11-15T07:02:05;5.97;;;2.45;;
30505;SDS011;17292;51.600;4.994;2022-11-15T07:04:31;4.22;;;2.20;;
30505;SDS011;17292;51.600;4.994;2022-11-15T07:06:57;6.63;;;2.50;;
30505;SDS011;17292;51.600;4.994;2022-11-15T07:09:24;4.78;;;2.00;;
30505;SDS011;17292;51.600;4.994;2022-11-15T07:11:51;9.15;;;2.70;;
30505;SDS011;17292;51.600;4.994;2022-11-15T07:14:17;12.65;;;3.13;;
30505;SDS011;17292;51.600;4.994;2022-11-15T07:16:43;9.77;;;2.45;;
30505;SDS011;17292;51.600;4.994;2022-11-15T07:19:09;9.10;;;2.65;;
30505;SDS011;17292;51.600;4.994;2022-11-15T07:21:36;9.55;;;2.80;;
30505;SDS011;17292;51.600;4.994;2022-11-15T07:24:02;7.93;;;2.60;;
30505;SDS011;17292;51.600;4.994;2022-11-15T07:26:29;4.32;;;2.25;;
30505;SDS011;17292;51.600;4.994;2022-11-15T07:28:55;8.52;;;2.92;;
30505;SDS011;17292;51.600;4.994;2022-11-15T07:31:21;7.78;;;2.72;;
30505;SDS011;17292;51.600;4.994;2022-11-15T07:33:47;7.53;;;2.85;;
30505;SDS011;17292;51.600;4.994;2022-11-15T07:36:14;9.02;;;2.50;;
30505;SDS011;17292;51.600;4.994;2022-11-15T07:38:40;9.35;;;2.67;;
30505;SDS011;17292;51.600;4.994;2022-11-15T07:41:07;12.82;;;3.05;;
30505;SDS011;17292;51.600;4.994;2022-11-15T07:43:33;13.60;;;2.80;;
30505;SDS011;17292;51.600;4.994;2022-11-15T07:46:07;13.77;;;2.60;;
30505;SDS011;17292;51.600;4.994;2022-11-15T07:48:34;10.05;;;2.47;;
30505;SDS011;17292;51.600;4.994;2022-11-15T07:51:01;12.43;;;2.88;;
30505;SDS011;17292;51.600;4.994;2022-11-15T07:53:28;9.00;;;2.92;;
30505;SDS011;17292;51.600;4.994;2022-11-15T07:55:54;15.07;;;2.80;;
30505;SDS011;17292;51.600;4.994;2022-11-15T07:58:20;11.20;;;3.03;;
30505;SDS011;17292;51.600;4.994;2022-11-15T08:00:46;9.90;;;2.53;;
30505;SDS011;17292;51.600;4.994;2022-11-15T08:03:13;11.35;;;2.90;;
30505;SDS011;17292;51.600;4.994;2022-11-15T08:05:40;7.47;;;2.70;;
30505;SDS011;17292;51.600;4.994;2022-11-15T08:08:07;16.75;;;3.10;;
30505;SDS011;17292;51.600;4.994;2022-11-15T08:10:34;7.93;;;2.65;;
30505;SDS011;17292;51.600;4.994;2022-11-15T08:13:01;8.88;;;2.63;;
30505;SDS011;17292;51.600;4.994;2022-11-15T08:15:28;8.65;;;2.65;;
30505;SDS011;17292;51.600;4.994;2022-11-15T08:17:56;8.60;;;2.63;;
30505;SDS011;17292;51.600;4.994;2022-11-15T08:20:22;6.72;;;2.85;;
30505;SDS011;17292;51.600;4.994;2022-11-15T08:22:49;12.18;;;3.05;;
30505;SDS011;17292;51.600;4.994;2022-11-15T08:25:15;8.18;;;2.50;;
30505;SDS011;17292;51.600;4.994;2022-11-15T08:27:41;8.90;;;3.17;;
30505;SDS011;17292;51.600;4.994;2022-11-15T08:30:07;7.78;;;2.95;;
30505;SDS011;17292;51.600;4.994;2022-11-15T08:32:34;8.77;;;3.00;;
30505;SDS011;17292;51.600;4.994;2022-11-15T08:35:00;11.10;;;2.85;;
30505;SDS011;17292;51.600;4.994;2022-11-15T08:37:26;9.75;;;2.58;;
30505;SDS011;17292;51.600;4.994;2022-11-15T08:39:53;10.35;;;2.63;;
30505;SDS011;17292;51.600;4.994;2022-11-15T08:42:19;13.38;;;2.97;;
30505;SDS011;17292;51.600;4.994;2022-11-15T08:44:45;3.78;;;2.05;;
30505;SDS011;17292;51.600;4.994;2022-11-15T08:47:11;15.05;;;3.33;;
30505;SDS011;17292;51.600;4.994;2022-11-15T08:49:38;10.60;;;2.67;;
30505;SDS011;17292;51.600;4.994;2022-11-15T08:52:05;18.17;;;3.33;;
30505;SDS011;17292;51.600;4.994;2022-11-15T08:54:31;14.20;;;2.80;;
30505;SDS011;17292;51.600;4.994;2022-11-15T08:56:57;16.75;;;3.80;;
30505;SDS011;17292;51.600;4.994;2022-11-15T08:59:24;12.50;;;2.72;;
30505;SDS011;17292;51.600;4.994;2022-11-15T09:01:50;18.98;;;3.17;;
30505;SDS011;17292;51.600;4.994;2022-11-15T09:04:16;13.93;;;3.35;;
30505;SDS011;17292;51.600;4.994;2022-11-15T09:06:42;8.38;;;2.97;;
30505;SDS011;17292;51.600;4.994;2022-11-15T09:09:09;9.43;;;2.58;;
30505;SDS011;17292;51.600;4.994;2022-11-15T09:11:35;15.38;;;3.10;;
30505;SDS011;17292;51.600;4.994;2022-11-15T09:14:01;18.30;;;3.08;;
30505;SDS011;17292;51.600;4.994;2022-11-15T09:16:28;14.43;;;3.17;;
30505;SDS011;17292;51.600;4.994;2022-11-15T09:18:56;8.85;;;2.70;;
30505;SDS011;17292;51.600;4.994;2022-11-15T09:21:22;17.30;;;3.13;;
30505;SDS011;17292;51.600;4.994;2022-11-15T09:23:51;17.30;;;3.33;;
30505;SDS011;17292;51.600;4.994;2022-11-15T09:26:18;16.25;;;3.10;;
30505;SDS011;17292;51.600;4.994;2022-11-15T09:28:44;12.57;;;2.78;;
30505;SDS011;17292;51.600;4.994;2022-11-15T09:31:10;14.70;;;3.38;;
30505;SDS011;17292;51.600;4.994;2022-11-15T09:33:37;9.15;;;3.38;;
30505;SDS011;17292;51.600;4.994;2022-11-15T09:36:04;14.00;;;3.15;;
30505;SDS011;17292;51.600;4.994;2022-11-15T09:38:31;14.52;;;3.17;;
30505;SDS011;17292;51.600;4.994;2022-11-15T09:41:17;14.90;;;3.05;;
30505;SDS011;17292;51.600;4.994;2022-11-15T09:43:54;13.00;;;3.00;;
30505;SDS011;17292;51.600;4.994;2022-11-15T09:49:08;18.02;;;3.58;;
30505;SDS011;17292;51.600;4.994;2022-11-15T09:51:38;17.58;;;3.42;;
30505;SDS011;17292;51.600;4.994;2022-11-15T09:56:47;16.75;;;3.05;;
30505;SDS011;17292;51.600;4.994;2022-11-15T10:04:15;18.92;;;3.42;;
30505;SDS011;17292;51.600;4.994;2022-11-15T10:07:02;14.77;;;3.67;;
30505;SDS011;17292;51.600;4.994;2022-11-15T10:09:38;9.82;;;2.75;;
30505;SDS011;17292;51.600;4.994;2022-11-15T10:12:08;19.00;;;3.70;;
30505;SDS011;17292;51.600;4.994;2022-11-15T10:14:34;14.80;;;3.15;;
30505;SDS011;17292;51.600;4.994;2022-11-15T10:17:23;15.48;;;3.40;;
30505;SDS011;17292;51.600;4.994;2022-11-15T10:20:13;18.65;;;3.53;;
30505;SDS011;17292;51.600;4.994;2022-11-15T10:22:45;16.65;;;2.90;;
30505;SDS011;17292;51.600;4.994;2022-11-15T10:25:20;11.68;;;3.10;;
30505;SDS011;17292;51.600;4.994;2022-11-15T10:27:50;12.25;;;2.78;;
30505;SDS011;17292;51.600;4.994;2022-11-15T10:30:17;14.88;;;3.83;;
30505;SDS011;17292;51.600;4.994;2022-11-15T10:32:44;10.38;;;3.00;;
30505;SDS011;17292;51.600;4.994;2022-11-15T10:35:27;17.90;;;3.17;;
30505;SDS011;17292;51.600;4.994;2022-11-15T10:38:07;12.75;;;2.83;;
30505;SDS011;17292;51.600;4.994;2022-11-15T10:40:34;18.02;;;2.88;;
30505;SDS011;17292;51.600;4.994;2022-11-15T10:43:12;10.57;;;2.95;;
30505;SDS011;17292;51.600;4.994;2022-11-15T10:45:39;11.07;;;3.17;;
30505;SDS011;17292;51.600;4.994;2022-11-15T10:53:03;13.32;;;2.88;;
30505;SDS011;17292;51.600;4.994;2022-11-15T10:55:30;16.73;;;3.20;;
30505;SDS011;17292;51.600;4.994;2022-11-15T10:58:19;8.75;;;2.80;;
30505;SDS011;17292;51.600;4.994;2022-11-15T11:00:43;13.40;;;3.30;;
30505;SDS011;17292;51.600;4.994;2022-11-15T11:06:12;10.73;;;3.70;;
30505;SDS011;17292;51.600;4.994;2022-11-15T11:08:39;20.60;;;3.60;;
30505;SDS011;17292;51.600;4.994;2022-11-15T11:11:05;11.52;;;3.33;;
30505;SDS011;17292;51.600;4.994;2022-11-15T11:13:39;17.48;;;3.33;;
30505;SDS011;17292;51.600;4.994;2022-11-15T11:19:30;13.80;;;3.17;;
30505;SDS011;17292;51.600;4.994;2022-11-15T11:21:49;10.25;;;2.90;;
30505;SDS011;17292;51.600;4.994;2022-11-15T11:29:58;15.02;;;3.15;;
30505;SDS011;17292;51.600;4.994;2022-11-15T11:34:59;16.52;;;3.17;;
30505;SDS011;17292;51.600;4.994;2022-11-15T11:40:13;9.55;;;3.08;;
30505;SDS011;17292;51.600;4.994;2022-11-15T11:42:51;15.32;;;3.35;;
30505;SDS011;17292;51.600;4.994;2022-11-15T11:47:51;11.32;;;2.95;;
30505;SDS011;17292;51.600;4.994;2022-11-15T11:50:24;14.20;;;3.45;;
30505;SDS011;17292;51.600;4.994;2022-11-15T11:52:58;16.60;;;3.03;;
30505;SDS011;17292;51.600;4.994;2022-11-15T11:55:39;12.25;;;2.90;;
30505;SDS011;17292;51.600;4.994;2022-11-15T12:00:54;13.65;;;3.20;;
30505;SDS011;17292;51.600;4.994;2022-11-15T12:05:54;13.57;;;2.92;;
30505;SDS011;17292;51.600;4.994;2022-11-15T12:08:25;24.35;;;3.50;;
30505;SDS011;17292;51.600;4.994;2022-11-15T12:11:04;14.38;;;3.05;;
30505;SDS011;17292;51.600;4.994;2022-11-15T12:13:33;22.98;;;3.72;;
30505;SDS011;17292;51.600;4.994;2022-11-15T12:18:37;13.60;;;3.03;;
30505;SDS011;17292;51.600;4.994;2022-11-15T12:21:06;17.48;;;3.67;;
30505;SDS011;17292;51.600;4.994;2022-11-15T12:23:41;16.75;;;3.10;;
30505;SDS011;17292;51.600;4.994;2022-11-15T12:26:10;22.15;;;3.25;;
30505;SDS011;17292;51.600;4.994;2022-11-15T12:28:45;14.43;;;2.88;;
30505;SDS011;17292;51.600;4.994;2022-11-15T12:31:28;15.57;;;2.97;;
30505;SDS011;17292;51.600;4.994;2022-11-15T12:33:59;16.85;;;3.33;;
30505;SDS011;17292;51.600;4.994;2022-11-15T12:36:45;17.45;;;3.72;;
30505;SDS011;17292;51.600;4.994;2022-11-15T12:39:12;18.35;;;3.40;;
30505;SDS011;17292;51.600;4.994;2022-11-15T13:02:21;18.60;;;3.25;;
30505;SDS011;17292;51.600;4.994;2022-11-15T13:04:48;13.30;;;2.80;;
30505;SDS011;17292;51.600;4.994;2022-11-15T13:10:00;14.70;;;3.15;;
30505;SDS011;17292;51.600;4.994;2022-11-15T13:19:51;16.35;;;3.13;;
30505;SDS011;17292;51.600;4.994;2022-11-15T13:22:18;14.15;;;3.80;;
30505;SDS011;17292;51.600;4.994;2022-11-15T13:25:03;12.50;;;2.97;;
30505;SDS011;17292;51.600;4.994;2022-11-15T13:27:30;15.38;;;3.03;;
30505;SDS011;17292;51.600;4.994;2022-11-15T13:29:57;21.98;;;3.55;;
30505;SDS011;17292;51.600;4.994;2022-11-15T13:32:23;20.67;;;3.65;;
30505;SDS011;17292;51.600;4.994;2022-11-15T13:34:50;17.25;;;3.80;;
30505;SDS011;17292;51.600;4.994;2022-11-15T13:39:50;15.80;;;3.80;;
30505;SDS011;17292;51.600;4.994;2022-11-15T13:42:17;18.08;;;3.28;;
30505;SDS011;17292;51.600;4.994;2022-11-15T13:44:57;19.90;;;3.63;;
30505;SDS011;17292;51.600;4.994;2022-11-15T13:47:27;19.17;;;3.70;;
30505;SDS011;17292;51.600;4.994;2022-11-15T13:49:56;15.45;;;3.30;;
30505;SDS011;17292;51.600;4.994;2022-11-15T13:52:22;16.55;;;3.38;;
30505;SDS011;17292;51.600;4.994;2022-11-15T13:54:53;20.77;;;3.35;;
30505;SDS011;17292;51.600;4.994;2022-11-15T13:57:23;16.25;;;3.22;;
30505;SDS011;17292;51.600;4.994;2022-11-15T13:59:53;14.15;;;3.60;;
30505;SDS011;17292;51.600;4.994;2022-11-15T14:02:30;14.57;;;3.35;;
30505;SDS011;17292;51.600;4.994;2022-11-15T14:07:24;16.90;;;3.65;;
30505;SDS011;17292;51.600;4.994;2022-11-15T14:09:51;20.02;;;3.75;;
30505;SDS011;17292;51.600;4.994;2022-11-15T14:12:31;22.23;;;4.07;;
30505;SDS011;17292;51.600;4.994;2022-11-15T14:14:59;14.18;;;3.65;;
30505;SDS011;17292;51.600;4.994;2022-11-15T14:19:55;26.77;;;3.22;;
30505;SDS011;17292;51.600;4.994;2022-11-15T14:22:25;23.60;;;4.28;;
30505;SDS011;17292;51.600;4.994;2022-11-15T14:27:38;22.90;;;3.70;;
30505;SDS011;17292;51.600;4.994;2022-11-15T14:30:04;20.52;;;3.30;;
30505;SDS011;17292;51.600;4.994;2022-11-15T14:32:40;14.35;;;3.10;;
30505;SDS011;17292;51.600;4.994;2022-11-15T14:35:08;18.73;;;3.40;;
30505;SDS011;17292;51.600;4.994;2022-11-15T14:37:36;13.57;;;3.45;;
30505;SDS011;17292;51.600;4.994;2022-11-15T14:40:03;14.65;;;3.20;;
30505;SDS011;17292;51.600;4.994;2022-11-15T14:42:29;16.45;;;3.80;;
30505;SDS011;17292;51.600;4.994;2022-11-15T14:44:56;16.58;;;4.03;;
30505;SDS011;17292;51.600;4.994;2022-11-15T14:47:22;9.23;;;3.25;;
30505;SDS011;17292;51.600;4.994;2022-11-15T14:49:48;17.90;;;3.50;;
30505;SDS011;17292;51.600;4.994;2022-11-15T14:52:28;18.73;;;3.38;;
30505;SDS011;17292;51.600;4.994;2022-11-15T14:54:57;25.20;;;3.80;;
30505;SDS011;17292;51.600;4.994;2022-11-15T14:57:24;15.55;;;3.60;;
30505;SDS011;17292;51.600;4.994;2022-11-15T14:59:50;18.05;;;4.18;;
30505;SDS011;17292;51.600;4.994;2022-11-15T15:02:23;27.13;;;4.10;;
30505;SDS011;17292;51.600;4.994;2022-11-15T15:04:50;19.58;;;3.53;;
30505;SDS011;17292;51.600;4.994;2022-11-15T15:07:17;15.70;;;3.55;;
30505;SDS011;17292;51.600;4.994;2022-11-15T15:09:43;16.00;;;3.63;;
30505;SDS011;17292;51.600;4.994;2022-11-15T15:12:20;19.38;;;3.33;;
30505;SDS011;17292;51.600;4.994;2022-11-15T15:14:47;22.10;;;3.83;;
30505;SDS011;17292;51.600;4.994;2022-11-15T15:17:13;18.88;;;4.20;;
30505;SDS011;17292;51.600;4.994;2022-11-15T15:19:40;18.60;;;3.78;;
30505;SDS011;17292;51.600;4.994;2022-11-15T15:22:14;27.90;;;4.07;;
30505;SDS011;17292;51.600;4.994;2022-11-15T15:24:41;17.05;;;3.97;;
30505;SDS011;17292;51.600;4.994;2022-11-15T15:27:07;13.00;;;3.92;;
30505;SDS011;17292;51.600;4.994;2022-11-15T15:29:34;20.85;;;3.45;;
30505;SDS011;17292;51.600;4.994;2022-11-15T15:32:00;17.98;;;3.28;;
30505;SDS011;17292;51.600;4.994;2022-11-15T15:34:26;21.67;;;3.63;;
30505;SDS011;17292;51.600;4.994;2022-11-15T15:37:37;9.82;;;3.28;;
30505;SDS011;17292;51.600;4.994;2022-11-15T15:39:39;18.38;;;4.07;;
30505;SDS011;17292;51.600;4.994;2022-11-15T15:42:05;23.15;;;3.97;;
30505;SDS011;17292;51.600;4.994;2022-11-15T15:44:31;21.33;;;3.60;;
30505;SDS011;17292;51.600;4.994;2022-11-15T15:46:58;15.65;;;3.47;;
30505;SDS011;17292;51.600;4.994;2022-11-15T15:49:24;16.83;;;3.92;;
30505;SDS011;17292;51.600;4.994;2022-11-15T15:51:50;27.92;;;3.50;;
30505;SDS011;17292;51.600;4.994;2022-11-15T15:54:16;20.38;;;4.13;;
30505;SDS011;17292;51.600;4.994;2022-11-15T15:56:43;23.80;;;3.67;;
30505;SDS011;17292;51.600;4.994;2022-11-15T15:59:09;21.45;;;3.70;;
30505;SDS011;17292;51.600;4.994;2022-11-15T16:01:35;28.50;;;3.92;;
30505;SDS011;17292;51.600;4.994;2022-11-15T16:04:01;17.95;;;3.53;;
30505;SDS011;17292;51.600;4.994;2022-11-15T16:08:57;13.90;;;3.63;;
30505;SDS011;17292;51.600;4.994;2022-11-15T16:11:23;21.25;;;3.10;;
30505;SDS011;17292;51.600;4.994;2022-11-15T16:13:50;17.70;;;3.88;;
30505;SDS011;17292;51.600;4.994;2022-11-15T16:16:16;10.23;;;2.85;;
30505;SDS011;17292;51.600;4.994;2022-11-15T16:18:43;8.25;;;2.90;;
30505;SDS011;17292;51.600;4.994;2022-11-15T16:21:09;11.75;;;2.85;;
30505;SDS011;17292;51.600;4.994;2022-11-15T16:23:35;12.23;;;2.47;;
30505;SDS011;17292;51.600;4.994;2022-11-15T16:26:02;18.58;;;3.10;;
30505;SDS011;17292;51.600;4.994;2022-11-15T16:28:32;13.52;;;3.30;;
30505;SDS011;17292;51.600;4.994;2022-11-15T16:31:00;15.85;;;3.55;;
30505;SDS011;17292;51.600;4.994;2022-11-15T16:33:26;14.70;;;2.70;;
30505;SDS011;17292;51.600;4.994;2022-11-15T16:35:52;12.55;;;3.55;;
30505;SDS011;17292;51.600;4.994;2022-11-15T16:38:19;16.33;;;3.80;;
30505;SDS011;17292;51.600;4.994;2022-11-15T16:40:45;15.50;;;3.40;;
30505;SDS011;17292;51.600;4.994;2022-11-15T16:43:11;21.58;;;3.90;;